x

Central Aleutians 230nm Sw Dutch Harbor (46072) Wave Buoy

11:50 - Tue 25th Nov 2014 All times are UTC.

  • Sig Wave height 16.4ft
  • Peak Period 9s
  • Average Period 7s
  • Wind
    36mph, 43mph gusts
  • Sea Temp 44°f
  • Aire Temp 44°f
  • Sea Pressure 995.5mb

More Historic Weather Station data

Upgrade to MSW Pro to gain access to the past 30 days of data for over 8000 Wavebouys and Weather Stations around the globe.

Join Pro

Comparision Forecast

View Surf forecast
   
mar 11/25 11:50 16.5ft 9s 7s 36 43 mph 995.5mb 44f 44f
10:50 15ft 8s 7s 36 47 mph 997.6mb 44f 44f
9:50 13.5ft 11s 6s 34 43 mph 1000.1mb 44f 44f
8:50 13ft 11s 6s 34 43 mph 1001.7mb 44f 44f
7:50 12ft 12s 6s 31 40 mph 1003mb 44f 44f
6:50 14ft 13s 7s 31 38 mph 1003.6mb 44f 44f
5:50 14ft 12s 7s 25 29 mph 1004.6mb 44f 44f
4:50 15ft 12s 7s 22 29 mph 1005.5mb 44f 44f
3:50 14ft 13s 7s 27 34 mph 1005.9mb 44f 44f
2:50 14ft 11s 8s 22 27 mph 1005.2mb 44f 44f
1:50 15.5ft 12s 8s 27 31 mph 1006.3mb 44f 44f
12:50 16.5ft 11s 8s 25 31 mph 1006.7mb 44f 44f
11:50 18.5ft 11s 8s 25 31 mph 1006.8mb 44f 45f
10:50 19ft 11s 8s 29 36 mph 1006.6mb 44f 45f
9:50 18.5ft 11s 8s 31 38 mph 1006.2mb 44f 45f
8:50 16ft 11s 7s 29 38 mph 1006mb 44f 44f
7:50 16.5ft 9s 7s 29 38 mph 1005.9mb 44f 44f
6:50 16ft 10s 7s 29 36 mph 1005.6mb 44f 44f
5:50 14.5ft 9s 7s 31 38 mph 1005.4mb 44f 44f
4:50 12.5ft 9s 7s 29 38 mph 1005.5mb 44f 44f
3:50 12.5ft 9s 7s 31 38 mph 1005.6mb 44f 44f
2:50 12ft 9s 6s 31 38 mph 1005.9mb 44f 44f
1:50 11ft 7s 6s 29 36 mph 1006mb 44f 44f
12:50 10ft 7s 6s 29 36 mph 1006.4mb 44f 44f
lun 11/24 11:50 9.5ft 8s 6s 29 34 mph 1007.4mb 44f 43f
10:50 9.5ft 9s 6s 27 34 mph 1008.3mb 44f 43f
9:50 9ft 9s 6s 27 34 mph 1009mb 44f 42f
8:50 8.5ft 9s 6s 27 34 mph 1009.3mb 44f 42f
7:50 8.5ft 10s 6s 25 29 mph 1009.6mb 44f 42f
6:50 8ft 10s 6s 25 29 mph 1009.9mb 44f 42f
5:50 8.5ft 10s 7s 22 27 mph 1010.2mb 44f 42f
4:50 8ft 9s 7s 18 25 mph 1010.5mb 44f 41f
3:50 8.5ft 11s 7s 16 22 mph 1010.9mb 44f 41f
2:50 8ft 10s 7s 13 16 mph 1011.2mb 44f 41f
1:50 8.5ft 11s 7s 16 22 mph 1011.5mb 44f 40f
12:50 9ft 9s 7s 11 16 mph 1011.5mb 44f 41f
11:50 9.5ft 11s 7s 11 16 mph 1011.4mb 44f 40f
10:50 9.5ft 10s 7s 16 18 mph 1011.7mb 44f 41f
9:50 11ft 11s 7s 16 20 mph 1011.3mb 44f 39f
8:50 12ft 9s 7s 18 20 mph 1011mb 44f 41f
7:50 12ft 9s 7s 16 18 mph 1010.5mb 44f 41f
6:50 10.5ft 9s 7s 16 18 mph 1010.4mb 44f 40f
5:50 10.5ft 8s 7s 16 18 mph 1010.2mb 44f 39f
4:50 10ft 8s 7s 13 16 mph 1009.2mb 44f 39f
3:50 10ft 9s 7s 22 31 mph 1008.8mb 44f 39f
2:50 11ft 9s 7s 25 31 mph 1007.8mb 44f 39f
1:50 10.5ft 8s 6s 20 25 mph 1006.8mb 44f 41f
12:50 11ft 8s 6s 22 27 mph 1006.5mb 44f 40f
dom 11/23 11:50 10.5ft 8s 6s 22 27 mph 1006.1mb 44f 41f
10:50 11ft 11s 6s 22 29 mph 1006.2mb 44f 39f
9:50 11ft 9s 7s 22 27 mph 1006mb 44f 40f
8:50 12ft 9s 7s 25 29 mph 1005.2mb 44f 41f
7:50 12.5ft 11s 7s 22 29 mph 1004.3mb 44f 40f
6:50 12ft 10s 7s 22 27 mph 1003.5mb 44f 40f
5:50 11ft 11s 7s 25 31 mph 1002.8mb 44f 38f
4:50 11ft 11s 7s 27 34 mph 1002.3mb 44f 39f
3:50 11ft 11s  -  25 31 mph 1001.7mb 44f 40f
2:50 11ft 9s 7s 27 31 mph 1001.2mb 44f 40f
1:50 11ft 10s 7s 22 29 mph 1000.8mb 44f 40f
12:50 10ft 8s 7s 25 34 mph 1000.2mb 44f 40f
11:50 11ft 9s 7s 22 27 mph 999.9mb 44f 41f
10:50 12.5ft 10s 7s 25 29 mph 999.3mb 44f 41f
9:50 11ft 11s 7s 27 34 mph 998.8mb 44f 41f
8:50 13.5ft 11s 7s 25 29 mph 998.2mb 44f 40f
7:50 12.5ft 11s 7s 25 31 mph 997.4mb 44f 41f
6:50 11.5ft 10s 7s 25 31 mph 997mb 44f 40f
5:50 11.5ft 10s 7s 27 36 mph 996.4mb 44f 40f
4:50 12ft 11s 7s 27 31 mph 995.8mb 44f 41f
3:50 12ft 11s 7s 27 34 mph 995.2mb 44f 41f
2:50 11.5ft 11s 7s 29 38 mph 994.3mb 44f 41f
1:50 11ft 10s 6s 27 34 mph 993.7mb 44f 42f
12:50 11ft 11s 6s 34 40 mph 993.1mb 44f 40f
sáb 11/22 11:50 11ft 10s 6s 27 34 mph 992.6mb 44f 42f
10:50 11ft 11s 6s 27 34 mph 992.5mb 44f 42f
9:50 11.5ft 10s 7s 27 31 mph 992.2mb 44f 42f
8:50 12.5ft 9s 7s 27 34 mph 991.4mb 44f 42f
7:50 12.5ft 11s 7s 25 31 mph 990.5mb 44f 42f
6:50 11ft 11s 7s 25 29 mph 989.6mb 44f 42f
5:50 12.5ft 11s 8s 25 29 mph 988.7mb 44f 42f
4:50 11ft 10s 7s 22 29 mph 987.8mb 44f 42f
3:50 9.5ft 10s 7s 22 29 mph 987mb 44f 42f
2:50 10ft 11s 7s 25 29 mph 986.3mb 44f 43f
1:50 11ft 10s 7s 22 27 mph 985.6mb 44f 43f
12:50 12ft 10s 7s 27 31 mph 984.8mb 44f 42f
11:50 11.5ft 10s 7s 25 31 mph 984.6mb 44f 42f
10:50 12ft 7s 7s 25 29 mph 984.2mb 44f 42f
9:50 11ft 9s 7s 22 27 mph 984mb 44f 42f
8:50 12ft 9s 7s 25 29 mph 983.6mb 44f 41f
7:50 12ft 7s 7s 25 31 mph 983.1mb 44f 42f
6:50 13ft 9s 7s 25 29 mph 982.7mb 44f 42f
5:50 12ft 8s 7s 25 31 mph 982.6mb 44f 42f
4:50 11ft 8s 7s 25 31 mph 982.4mb 44f 41f
3:50 11ft 7s 7s 27 34 mph 982.2mb 44f 41f
2:50 10ft 7s 6s 25 34 mph 982.1mb 44f 41f
1:50 10ft 11s 6s 31 36 mph 981.6mb 44f 41f
12:50 8.5ft 11s 6s 27 31 mph 981.6mb 44f 40f